sensor_id;sensor_type;location;lat;lon;timestamp;P1;durP1;ratioP1;P2;durP2;ratioP2
10122;SDS011;5101;49.038;8.710;2023-04-03T00:01:09;1.17;;;0.97;;
10122;SDS011;5101;49.038;8.710;2023-04-03T00:03:35;1.50;;;0.87;;
10122;SDS011;5101;49.038;8.710;2023-04-03T00:06:01;3.70;;;0.90;;
10122;SDS011;5101;49.038;8.710;2023-04-03T00:08:27;1.00;;;0.90;;
10122;SDS011;5101;49.038;8.710;2023-04-03T00:10:55;1.80;;;1.00;;
10122;SDS011;5101;49.038;8.710;2023-04-03T00:13:20;1.17;;;0.80;;
10122;SDS011;5101;49.038;8.710;2023-04-03T00:15:46;2.53;;;1.00;;
10122;SDS011;5101;49.038;8.710;2023-04-03T00:18:12;2.27;;;1.20;;
10122;SDS011;5101;49.038;8.710;2023-04-03T00:20:37;1.93;;;1.00;;
10122;SDS011;5101;49.038;8.710;2023-04-03T00:23:03;1.67;;;0.80;;
10122;SDS011;5101;49.038;8.710;2023-04-03T00:25:28;1.77;;;1.00;;
10122;SDS011;5101;49.038;8.710;2023-04-03T00:27:54;1.63;;;0.80;;
10122;SDS011;5101;49.038;8.710;2023-04-03T00:30:20;2.10;;;0.90;;
10122;SDS011;5101;49.038;8.710;2023-04-03T00:32:47;1.10;;;1.00;;
10122;SDS011;5101;49.038;8.710;2023-04-03T00:35:14;1.83;;;0.80;;
10122;SDS011;5101;49.038;8.710;2023-04-03T00:37:40;1.07;;;0.70;;
10122;SDS011;5101;49.038;8.710;2023-04-03T00:40:07;1.23;;;1.10;;
10122;SDS011;5101;49.038;8.710;2023-04-03T00:42:34;1.30;;;0.80;;
10122;SDS011;5101;49.038;8.710;2023-04-03T00:47:27;0.90;;;0.80;;
10122;SDS011;5101;49.038;8.710;2023-04-03T00:49:54;0.83;;;0.60;;
10122;SDS011;5101;49.038;8.710;2023-04-03T00:52:21;1.63;;;0.97;;
10122;SDS011;5101;49.038;8.710;2023-04-03T00:54:52;0.80;;;0.70;;
10122;SDS011;5101;49.038;8.710;2023-04-03T00:57:22;2.33;;;1.20;;
10122;SDS011;5101;49.038;8.710;2023-04-03T00:59:52;2.07;;;0.90;;
10122;SDS011;5101;49.038;8.710;2023-04-03T01:02:21;0.77;;;0.77;;
10122;SDS011;5101;49.038;8.710;2023-04-03T01:04:47;1.30;;;0.90;;
10122;SDS011;5101;49.038;8.710;2023-04-03T01:07:14;1.57;;;1.00;;
10122;SDS011;5101;49.038;8.710;2023-04-03T01:09:43;2.30;;;0.90;;
10122;SDS011;5101;49.038;8.710;2023-04-03T01:12:17;2.67;;;0.90;;
10122;SDS011;5101;49.038;8.710;2023-04-03T01:14:43;1.97;;;0.93;;
10122;SDS011;5101;49.038;8.710;2023-04-03T01:20:15;2.63;;;1.00;;
10122;SDS011;5101;49.038;8.710;2023-04-03T01:25:48;3.30;;;0.70;;
10122;SDS011;5101;49.038;8.710;2023-04-03T01:28:18;1.17;;;1.00;;
10122;SDS011;5101;49.038;8.710;2023-04-03T01:33:33;4.73;;;0.90;;
10122;SDS011;5101;49.038;8.710;2023-04-03T01:35:58;1.20;;;0.90;;
10122;SDS011;5101;49.038;8.710;2023-04-03T01:38:24;1.37;;;1.03;;
10122;SDS011;5101;49.038;8.710;2023-04-03T01:40:50;1.40;;;0.87;;
10122;SDS011;5101;49.038;8.710;2023-04-03T01:43:15;1.17;;;1.00;;
10122;SDS011;5101;49.038;8.710;2023-04-03T01:45:41;1.20;;;1.03;;
10122;SDS011;5101;49.038;8.710;2023-04-03T01:48:06;2.20;;;0.87;;
10122;SDS011;5101;49.038;8.710;2023-04-03T01:50:32;0.80;;;0.70;;
10122;SDS011;5101;49.038;8.710;2023-04-03T01:52:58;1.93;;;1.00;;
10122;SDS011;5101;49.038;8.710;2023-04-03T01:55:23;1.00;;;0.80;;
10122;SDS011;5101;49.038;8.710;2023-04-03T01:57:49;1.53;;;0.90;;
10122;SDS011;5101;49.038;8.710;2023-04-03T02:00:14;1.30;;;1.03;;
10122;SDS011;5101;49.038;8.710;2023-04-03T02:02:40;0.80;;;0.80;;
10122;SDS011;5101;49.038;8.710;2023-04-03T02:05:06;1.43;;;1.07;;
10122;SDS011;5101;49.038;8.710;2023-04-03T02:07:32;1.17;;;0.90;;
10122;SDS011;5101;49.038;8.710;2023-04-03T02:09:57;2.70;;;1.20;;
10122;SDS011;5101;49.038;8.710;2023-04-03T02:12:23;1.43;;;0.90;;
10122;SDS011;5101;49.038;8.710;2023-04-03T02:14:48;1.00;;;0.90;;
10122;SDS011;5101;49.038;8.710;2023-04-03T02:17:14;1.67;;;1.03;;
10122;SDS011;5101;49.038;8.710;2023-04-03T02:19:39;2.83;;;0.93;;
10122;SDS011;5101;49.038;8.710;2023-04-03T02:22:05;1.73;;;1.03;;
10122;SDS011;5101;49.038;8.710;2023-04-03T02:24:31;1.07;;;0.97;;
10122;SDS011;5101;49.038;8.710;2023-04-03T02:26:56;1.53;;;0.90;;
10122;SDS011;5101;49.038;8.710;2023-04-03T02:29:22;1.53;;;0.87;;
10122;SDS011;5101;49.038;8.710;2023-04-03T02:31:48;1.40;;;0.80;;
10122;SDS011;5101;49.038;8.710;2023-04-03T02:34:14;2.70;;;0.93;;
10122;SDS011;5101;49.038;8.710;2023-04-03T02:36:39;1.43;;;1.33;;
10122;SDS011;5101;49.038;8.710;2023-04-03T02:39:05;1.00;;;0.90;;
10122;SDS011;5101;49.038;8.710;2023-04-03T02:41:31;1.30;;;1.10;;
10122;SDS011;5101;49.038;8.710;2023-04-03T02:44:01;1.10;;;1.00;;
10122;SDS011;5101;49.038;8.710;2023-04-03T02:46:27;2.03;;;1.10;;
10122;SDS011;5101;49.038;8.710;2023-04-03T02:48:54;1.90;;;1.03;;
10122;SDS011;5101;49.038;8.710;2023-04-03T02:51:20;1.20;;;0.93;;
10122;SDS011;5101;49.038;8.710;2023-04-03T02:53:45;1.83;;;0.90;;
10122;SDS011;5101;49.038;8.710;2023-04-03T02:56:11;1.63;;;0.87;;
10122;SDS011;5101;49.038;8.710;2023-04-03T02:58:36;1.93;;;1.20;;
10122;SDS011;5101;49.038;8.710;2023-04-03T03:01:02;2.83;;;1.00;;
10122;SDS011;5101;49.038;8.710;2023-04-03T03:03:28;2.47;;;1.10;;
10122;SDS011;5101;49.038;8.710;2023-04-03T03:08:33;2.10;;;1.13;;
10122;SDS011;5101;49.038;8.710;2023-04-03T03:10:59;1.77;;;1.20;;
10122;SDS011;5101;49.038;8.710;2023-04-03T03:13:25;1.07;;;0.97;;
10122;SDS011;5101;49.038;8.710;2023-04-03T03:15:51;1.43;;;1.13;;
10122;SDS011;5101;49.038;8.710;2023-04-03T03:18:16;1.13;;;0.77;;
10122;SDS011;5101;49.038;8.710;2023-04-03T03:20:42;1.83;;;1.33;;
10122;SDS011;5101;49.038;8.710;2023-04-03T03:23:08;2.80;;;1.00;;
10122;SDS011;5101;49.038;8.710;2023-04-03T03:25:37;1.90;;;0.83;;
10122;SDS011;5101;49.038;8.710;2023-04-03T03:28:03;2.07;;;1.27;;
10122;SDS011;5101;49.038;8.710;2023-04-03T03:30:29;1.37;;;1.10;;
10122;SDS011;5101;49.038;8.710;2023-04-03T03:32:55;2.33;;;0.90;;
10122;SDS011;5101;49.038;8.710;2023-04-03T03:35:20;1.50;;;1.20;;
10122;SDS011;5101;49.038;8.710;2023-04-03T03:37:46;2.33;;;1.10;;
10122;SDS011;5101;49.038;8.710;2023-04-03T03:40:11;1.37;;;1.00;;
10122;SDS011;5101;49.038;8.710;2023-04-03T03:42:38;1.13;;;1.00;;
10122;SDS011;5101;49.038;8.710;2023-04-03T03:45:04;2.20;;;1.10;;
10122;SDS011;5101;49.038;8.710;2023-04-03T03:47:30;5.00;;;1.00;;
10122;SDS011;5101;49.038;8.710;2023-04-03T03:49:55;1.67;;;1.17;;
10122;SDS011;5101;49.038;8.710;2023-04-03T03:52:21;2.00;;;1.20;;
10122;SDS011;5101;49.038;8.710;2023-04-03T03:54:46;3.00;;;1.27;;
10122;SDS011;5101;49.038;8.710;2023-04-03T03:57:12;1.63;;;1.00;;
10122;SDS011;5101;49.038;8.710;2023-04-03T03:59:37;3.60;;;1.03;;
10122;SDS011;5101;49.038;8.710;2023-04-03T04:02:03;1.93;;;0.97;;
10122;SDS011;5101;49.038;8.710;2023-04-03T04:04:28;2.47;;;1.10;;
10122;SDS011;5101;49.038;8.710;2023-04-03T04:06:54;2.57;;;1.10;;
10122;SDS011;5101;49.038;8.710;2023-04-03T04:09:20;1.10;;;1.00;;
10122;SDS011;5101;49.038;8.710;2023-04-03T04:11:46;1.70;;;1.10;;
10122;SDS011;5101;49.038;8.710;2023-04-03T04:14:12;2.87;;;1.37;;
10122;SDS011;5101;49.038;8.710;2023-04-03T04:16:38;2.07;;;1.40;;
10122;SDS011;5101;49.038;8.710;2023-04-03T04:19:04;2.27;;;1.70;;
10122;SDS011;5101;49.038;8.710;2023-04-03T04:21:30;1.53;;;1.17;;
10122;SDS011;5101;49.038;8.710;2023-04-03T04:23:55;1.13;;;1.03;;
10122;SDS011;5101;49.038;8.710;2023-04-03T04:26:21;2.83;;;1.40;;
10122;SDS011;5101;49.038;8.710;2023-04-03T04:28:46;1.83;;;1.20;;
10122;SDS011;5101;49.038;8.710;2023-04-03T04:31:12;2.40;;;1.20;;
10122;SDS011;5101;49.038;8.710;2023-04-03T04:33:37;2.80;;;1.50;;
10122;SDS011;5101;49.038;8.710;2023-04-03T04:36:03;3.07;;;1.60;;
10122;SDS011;5101;49.038;8.710;2023-04-03T04:38:28;2.33;;;1.57;;
10122;SDS011;5101;49.038;8.710;2023-04-03T04:40:54;1.80;;;1.30;;
10122;SDS011;5101;49.038;8.710;2023-04-03T04:43:20;2.57;;;1.30;;
10122;SDS011;5101;49.038;8.710;2023-04-03T04:45:45;4.70;;;1.20;;
10122;SDS011;5101;49.038;8.710;2023-04-03T04:48:11;1.00;;;0.90;;
10122;SDS011;5101;49.038;8.710;2023-04-03T04:50:36;2.47;;;1.50;;
10122;SDS011;5101;49.038;8.710;2023-04-03T04:53:02;4.93;;;1.37;;
10122;SDS011;5101;49.038;8.710;2023-04-03T04:55:29;1.57;;;1.30;;
10122;SDS011;5101;49.038;8.710;2023-04-03T04:57:54;2.70;;;1.20;;
10122;SDS011;5101;49.038;8.710;2023-04-03T05:00:20;1.47;;;1.20;;
10122;SDS011;5101;49.038;8.710;2023-04-03T05:02:46;4.43;;;1.67;;
10122;SDS011;5101;49.038;8.710;2023-04-03T05:05:11;2.53;;;1.23;;
10122;SDS011;5101;49.038;8.710;2023-04-03T05:07:37;2.03;;;1.30;;
10122;SDS011;5101;49.038;8.710;2023-04-03T05:10:02;1.07;;;0.93;;
10122;SDS011;5101;49.038;8.710;2023-04-03T05:12:28;2.00;;;1.17;;
10122;SDS011;5101;49.038;8.710;2023-04-03T05:14:54;1.73;;;1.10;;
10122;SDS011;5101;49.038;8.710;2023-04-03T05:17:19;2.07;;;1.17;;
10122;SDS011;5101;49.038;8.710;2023-04-03T05:19:45;2.53;;;1.37;;
10122;SDS011;5101;49.038;8.710;2023-04-03T05:22:11;1.47;;;1.20;;
10122;SDS011;5101;49.038;8.710;2023-04-03T05:24:37;2.43;;;1.20;;
10122;SDS011;5101;49.038;8.710;2023-04-03T05:27:02;1.73;;;1.20;;
10122;SDS011;5101;49.038;8.710;2023-04-03T05:29:28;1.50;;;1.23;;
10122;SDS011;5101;49.038;8.710;2023-04-03T05:31:54;2.23;;;1.03;;
10122;SDS011;5101;49.038;8.710;2023-04-03T05:34:20;1.57;;;1.10;;
10122;SDS011;5101;49.038;8.710;2023-04-03T05:36:45;1.67;;;1.10;;
10122;SDS011;5101;49.038;8.710;2023-04-03T05:39:11;3.60;;;1.27;;
10122;SDS011;5101;49.038;8.710;2023-04-03T05:41:36;1.63;;;1.30;;
10122;SDS011;5101;49.038;8.710;2023-04-03T05:44:02;2.30;;;1.20;;
10122;SDS011;5101;49.038;8.710;2023-04-03T05:46:27;2.27;;;1.20;;
10122;SDS011;5101;49.038;8.710;2023-04-03T05:48:53;1.03;;;1.00;;
10122;SDS011;5101;49.038;8.710;2023-04-03T05:51:20;2.13;;;1.23;;
10122;SDS011;5101;49.038;8.710;2023-04-03T05:53:48;2.57;;;1.13;;
10122;SDS011;5101;49.038;8.710;2023-04-03T05:56:24;1.20;;;1.10;;
10122;SDS011;5101;49.038;8.710;2023-04-03T05:58:50;1.67;;;1.00;;
10122;SDS011;5101;49.038;8.710;2023-04-03T06:01:15;2.00;;;1.40;;
10122;SDS011;5101;49.038;8.710;2023-04-03T06:03:42;2.10;;;1.20;;
10122;SDS011;5101;49.038;8.710;2023-04-03T06:06:07;3.50;;;1.20;;
10122;SDS011;5101;49.038;8.710;2023-04-03T06:08:33;2.27;;;1.20;;
10122;SDS011;5101;49.038;8.710;2023-04-03T06:10:59;2.13;;;1.10;;
10122;SDS011;5101;49.038;8.710;2023-04-03T06:13:26;2.60;;;1.43;;
10122;SDS011;5101;49.038;8.710;2023-04-03T06:15:52;3.47;;;1.17;;
10122;SDS011;5101;49.038;8.710;2023-04-03T06:18:17;2.33;;;1.30;;
10122;SDS011;5101;49.038;8.710;2023-04-03T06:20:43;1.20;;;1.10;;
10122;SDS011;5101;49.038;8.710;2023-04-03T06:23:08;2.57;;;1.50;;
10122;SDS011;5101;49.038;8.710;2023-04-03T06:25:35;3.33;;;1.43;;
10122;SDS011;5101;49.038;8.710;2023-04-03T06:28:00;2.30;;;1.13;;
10122;SDS011;5101;49.038;8.710;2023-04-03T06:30:26;3.43;;;1.67;;
10122;SDS011;5101;49.038;8.710;2023-04-03T06:32:52;3.23;;;1.50;;
10122;SDS011;5101;49.038;8.710;2023-04-03T06:35:17;3.73;;;1.73;;
10122;SDS011;5101;49.038;8.710;2023-04-03T06:37:43;2.50;;;1.40;;
10122;SDS011;5101;49.038;8.710;2023-04-03T06:40:12;1.60;;;1.27;;
10122;SDS011;5101;49.038;8.710;2023-04-03T06:42:42;1.83;;;1.23;;
10122;SDS011;5101;49.038;8.710;2023-04-03T06:45:08;4.80;;;1.50;;
10122;SDS011;5101;49.038;8.710;2023-04-03T06:47:36;2.40;;;1.23;;
10122;SDS011;5101;49.038;8.710;2023-04-03T06:50:01;2.73;;;1.77;;
10122;SDS011;5101;49.038;8.710;2023-04-03T06:52:27;4.57;;;1.40;;
10122;SDS011;5101;49.038;8.710;2023-04-03T06:54:53;2.80;;;1.20;;
10122;SDS011;5101;49.038;8.710;2023-04-03T06:57:22;3.00;;;1.20;;
10122;SDS011;5101;49.038;8.710;2023-04-03T06:59:47;2.87;;;1.87;;
10122;SDS011;5101;49.038;8.710;2023-04-03T07:02:13;2.53;;;1.60;;
10122;SDS011;5101;49.038;8.710;2023-04-03T07:04:38;3.17;;;1.50;;
10122;SDS011;5101;49.038;8.710;2023-04-03T07:07:04;2.10;;;1.70;;
10122;SDS011;5101;49.038;8.710;2023-04-03T07:09:29;1.73;;;1.47;;
10122;SDS011;5101;49.038;8.710;2023-04-03T07:11:55;2.47;;;1.73;;
10122;SDS011;5101;49.038;8.710;2023-04-03T07:14:20;2.50;;;1.50;;
10122;SDS011;5101;49.038;8.710;2023-04-03T07:16:46;2.30;;;1.60;;
10122;SDS011;5101;49.038;8.710;2023-04-03T07:19:11;2.53;;;1.70;;
10122;SDS011;5101;49.038;8.710;2023-04-03T07:21:37;4.33;;;2.07;;
10122;SDS011;5101;49.038;8.710;2023-04-03T07:24:03;4.17;;;1.97;;
10122;SDS011;5101;49.038;8.710;2023-04-03T07:26:28;1.53;;;1.43;;
10122;SDS011;5101;49.038;8.710;2023-04-03T07:28:54;5.23;;;1.83;;
10122;SDS011;5101;49.038;8.710;2023-04-03T07:31:19;1.83;;;1.57;;
10122;SDS011;5101;49.038;8.710;2023-04-03T07:33:45;3.00;;;1.80;;
10122;SDS011;5101;49.038;8.710;2023-04-03T07:36:14;2.00;;;1.60;;
10122;SDS011;5101;49.038;8.710;2023-04-03T07:38:42;3.57;;;1.90;;
10122;SDS011;5101;49.038;8.710;2023-04-03T07:41:07;5.10;;;1.87;;
10122;SDS011;5101;49.038;8.710;2023-04-03T07:43:38;3.73;;;2.00;;
10122;SDS011;5101;49.038;8.710;2023-04-03T07:46:04;2.57;;;1.33;;
10122;SDS011;5101;49.038;8.710;2023-04-03T07:48:30;2.50;;;1.40;;
10122;SDS011;5101;49.038;8.710;2023-04-03T07:50:59;3.87;;;1.87;;
10122;SDS011;5101;49.038;8.710;2023-04-03T07:53:25;3.37;;;1.60;;
10122;SDS011;5101;49.038;8.710;2023-04-03T07:55:51;2.53;;;1.50;;
10122;SDS011;5101;49.038;8.710;2023-04-03T07:58:20;2.93;;;1.80;;
10122;SDS011;5101;49.038;8.710;2023-04-03T08:00:46;2.93;;;1.60;;
10122;SDS011;5101;49.038;8.710;2023-04-03T08:03:12;3.50;;;1.40;;
10122;SDS011;5101;49.038;8.710;2023-04-03T08:05:40;2.03;;;1.40;;
10122;SDS011;5101;49.038;8.710;2023-04-03T08:08:06;2.75;;;1.77;;
10122;SDS011;5101;49.038;8.710;2023-04-03T08:10:33;2.85;;;1.67;;
10122;SDS011;5101;49.038;8.710;2023-04-03T08:12:59;2.50;;;1.50;;
10122;SDS011;5101;49.038;8.710;2023-04-03T08:15:25;2.35;;;1.48;;
10122;SDS011;5101;49.038;8.710;2023-04-03T08:17:51;2.45;;;1.60;;
10122;SDS011;5101;49.038;8.710;2023-04-03T08:20:17;1.75;;;1.35;;
10122;SDS011;5101;49.038;8.710;2023-04-03T08:22:43;3.17;;;1.33;;
10122;SDS011;5101;49.038;8.710;2023-04-03T08:25:08;2.85;;;1.58;;
10122;SDS011;5101;49.038;8.710;2023-04-03T08:27:34;2.65;;;1.42;;
10122;SDS011;5101;49.038;8.710;2023-04-03T08:30:00;1.83;;;1.60;;
10122;SDS011;5101;49.038;8.710;2023-04-03T08:32:26;2.08;;;1.27;;
10122;SDS011;5101;49.038;8.710;2023-04-03T08:34:52;1.40;;;1.30;;
10122;SDS011;5101;49.038;8.710;2023-04-03T08:37:17;2.63;;;1.25;;
10122;SDS011;5101;49.038;8.710;2023-04-03T08:39:44;4.60;;;1.50;;
10122;SDS011;5101;49.038;8.710;2023-04-03T08:42:31;3.35;;;1.63;;
10122;SDS011;5101;49.038;8.710;2023-04-03T08:45:17;2.97;;;1.20;;
10122;SDS011;5101;49.038;8.710;2023-04-03T08:47:55;2.88;;;1.30;;
10122;SDS011;5101;49.038;8.710;2023-04-03T08:50:46;2.45;;;1.33;;
10122;SDS011;5101;49.038;8.710;2023-04-03T08:53:15;2.20;;;1.30;;
10122;SDS011;5101;49.038;8.710;2023-04-03T08:55:47;2.08;;;1.23;;
10122;SDS011;5101;49.038;8.710;2023-04-03T09:00:48;3.28;;;1.33;;
10122;SDS011;5101;49.038;8.710;2023-04-03T09:03:29;2.63;;;1.10;;
10122;SDS011;5101;49.038;8.710;2023-04-03T09:05:57;2.83;;;1.45;;
10122;SDS011;5101;49.038;8.710;2023-04-03T09:08:30;3.17;;;1.38;;
10122;SDS011;5101;49.038;8.710;2023-04-03T09:11:06;1.13;;;0.90;;
10122;SDS011;5101;49.038;8.710;2023-04-03T09:19:22;2.17;;;1.02;;
10122;SDS011;5101;49.038;8.710;2023-04-03T09:21:48;2.70;;;1.25;;
10122;SDS011;5101;49.038;8.710;2023-04-03T09:24:15;1.88;;;0.93;;
10122;SDS011;5101;49.038;8.710;2023-04-03T09:26:43;2.70;;;0.90;;
10122;SDS011;5101;49.038;8.710;2023-04-03T09:29:19;3.95;;;0.85;;
10122;SDS011;5101;49.038;8.710;2023-04-03T09:31:48;1.83;;;0.80;;
10122;SDS011;5101;49.038;8.710;2023-04-03T09:36:55;2.17;;;0.93;;
10122;SDS011;5101;49.038;8.710;2023-04-03T09:39:23;1.42;;;0.90;;
10122;SDS011;5101;49.038;8.710;2023-04-03T09:41:59;2.83;;;1.13;;
10122;SDS011;5101;49.038;8.710;2023-04-03T09:44:31;2.55;;;1.05;;
10122;SDS011;5101;49.038;8.710;2023-04-03T09:47:16;2.30;;;1.40;;
10122;SDS011;5101;49.038;8.710;2023-04-03T09:49:44;3.72;;;1.15;;
10122;SDS011;5101;49.038;8.710;2023-04-03T09:52:23;3.42;;;0.93;;
10122;SDS011;5101;49.038;8.710;2023-04-03T09:54:50;2.25;;;0.93;;
10122;SDS011;5101;49.038;8.710;2023-04-03T09:57:16;1.80;;;1.13;;
10122;SDS011;5101;49.038;8.710;2023-04-03T09:59:58;3.42;;;0.82;;
10122;SDS011;5101;49.038;8.710;2023-04-03T10:02:37;1.83;;;1.00;;
10122;SDS011;5101;49.038;8.710;2023-04-03T10:05:05;3.53;;;1.00;;
10122;SDS011;5101;49.038;8.710;2023-04-03T10:07:52;2.72;;;1.10;;
10122;SDS011;5101;49.038;8.710;2023-04-03T10:10:38;1.50;;;1.00;;
10122;SDS011;5101;49.038;8.710;2023-04-03T10:15:32;1.95;;;0.90;;
10122;SDS011;5101;49.038;8.710;2023-04-03T10:18:27;1.48;;;0.80;;
10122;SDS011;5101;49.038;8.710;2023-04-03T10:21:05;1.50;;;0.77;;
10122;SDS011;5101;49.038;8.710;2023-04-03T10:26:39;1.00;;;0.82;;
10122;SDS011;5101;49.038;8.710;2023-04-03T10:32:26;1.02;;;0.70;;
10122;SDS011;5101;49.038;8.710;2023-04-03T10:35:37;2.95;;;0.88;;
10122;SDS011;5101;49.038;8.710;2023-04-03T10:38:37;1.45;;;0.90;;
10122;SDS011;5101;49.038;8.710;2023-04-03T10:41:29;1.65;;;0.95;;
10122;SDS011;5101;49.038;8.710;2023-04-03T10:44:01;1.75;;;0.70;;
10122;SDS011;5101;49.038;8.710;2023-04-03T10:46:53;1.40;;;0.80;;
10122;SDS011;5101;49.038;8.710;2023-04-03T10:52:02;2.72;;;1.30;;
10122;SDS011;5101;49.038;8.710;2023-04-03T10:54:52;1.83;;;0.82;;
10122;SDS011;5101;49.038;8.710;2023-04-03T10:57:32;1.52;;;1.00;;
10122;SDS011;5101;49.038;8.710;2023-04-03T10:59:59;1.40;;;1.00;;
10122;SDS011;5101;49.038;8.710;2023-04-03T11:04:59;1.45;;;0.65;;
10122;SDS011;5101;49.038;8.710;2023-04-03T11:07:33;2.70;;;0.90;;
10122;SDS011;5101;49.038;8.710;2023-04-03T11:10:05;0.63;;;0.60;;
10122;SDS011;5101;49.038;8.710;2023-04-03T11:12:54;1.77;;;0.73;;
10122;SDS011;5101;49.038;8.710;2023-04-03T11:15:26;1.42;;;0.70;;
10122;SDS011;5101;49.038;8.710;2023-04-03T11:17:58;0.85;;;0.80;;
10122;SDS011;5101;49.038;8.710;2023-04-03T11:20:45;1.50;;;0.80;;
10122;SDS011;5101;49.038;8.710;2023-04-03T11:23:21;3.15;;;0.90;;
10122;SDS011;5101;49.038;8.710;2023-04-03T11:25:51;3.83;;;0.93;;
10122;SDS011;5101;49.038;8.710;2023-04-03T11:28:20;1.55;;;0.75;;
10122;SDS011;5101;49.038;8.710;2023-04-03T11:33:37;1.23;;;0.90;;
10122;SDS011;5101;49.038;8.710;2023-04-03T11:36:13;1.75;;;1.17;;
10122;SDS011;5101;49.038;8.710;2023-04-03T11:38:52;1.42;;;0.70;;
10122;SDS011;5101;49.038;8.710;2023-04-03T11:41:28;1.65;;;0.93;;
10122;SDS011;5101;49.038;8.710;2023-04-03T11:43:59;1.33;;;0.85;;
10122;SDS011;5101;49.038;8.710;2023-04-03T11:46:49;1.83;;;0.93;;
10122;SDS011;5101;49.038;8.710;2023-04-03T12:05:57;2.95;;;1.48;;
10122;SDS011;5101;49.038;8.710;2023-04-03T12:16:03;1.15;;;0.88;;
10122;SDS011;5101;49.038;8.710;2023-04-03T12:18:31;2.95;;;1.05;;
10122;SDS011;5101;49.038;8.710;2023-04-03T12:21:06;2.03;;;1.10;;
10122;SDS011;5101;49.038;8.710;2023-04-03T12:23:32;2.85;;;0.90;;
10122;SDS011;5101;49.038;8.710;2023-04-03T12:26:34;2.55;;;1.05;;
10122;SDS011;5101;49.038;8.710;2023-04-03T12:28:53;3.20;;;1.02;;
10122;SDS011;5101;49.038;8.710;2023-04-03T12:31:19;3.83;;;1.10;;
10122;SDS011;5101;49.038;8.710;2023-04-03T12:39:51;1.15;;;0.77;;
10122;SDS011;5101;49.038;8.710;2023-04-03T12:45:23;2.45;;;1.23;;
10122;SDS011;5101;49.038;8.710;2023-04-03T12:47:51;1.67;;;0.70;;
10122;SDS011;5101;49.038;8.710;2023-04-03T12:50:27;3.10;;;0.98;;
10122;SDS011;5101;49.038;8.710;2023-04-03T12:55:31;3.78;;;1.15;;
10122;SDS011;5101;49.038;8.710;2023-04-03T12:57:56;1.92;;;0.98;;
10122;SDS011;5101;49.038;8.710;2023-04-03T13:00:37;1.95;;;0.77;;
10122;SDS011;5101;49.038;8.710;2023-04-03T13:03:04;1.95;;;0.90;;
10122;SDS011;5101;49.038;8.710;2023-04-03T13:05:32;1.45;;;0.85;;
10122;SDS011;5101;49.038;8.710;2023-04-03T13:08:00;1.85;;;0.95;;
10122;SDS011;5101;49.038;8.710;2023-04-03T13:10:28;1.63;;;1.00;;
10122;SDS011;5101;49.038;8.710;2023-04-03T13:12:58;2.22;;;0.93;;
10122;SDS011;5101;49.038;8.710;2023-04-03T13:15:41;2.08;;;1.00;;
10122;SDS011;5101;49.038;8.710;2023-04-03T13:18:23;2.08;;;0.95;;
10122;SDS011;5101;49.038;8.710;2023-04-03T13:20:53;2.47;;;0.90;;
10122;SDS011;5101;49.038;8.710;2023-04-03T13:23:43;3.88;;;1.40;;
10122;SDS011;5101;49.038;8.710;2023-04-03T13:26:11;1.98;;;1.13;;
10122;SDS011;5101;49.038;8.710;2023-04-03T13:28:38;2.42;;;1.10;;
10122;SDS011;5101;49.038;8.710;2023-04-03T13:33:38;2.13;;;1.02;;
10122;SDS011;5101;49.038;8.710;2023-04-03T13:38:42;1.35;;;1.00;;
10122;SDS011;5101;49.038;8.710;2023-04-03T13:41:25;2.75;;;1.02;;
10122;SDS011;5101;49.038;8.710;2023-04-03T13:43:54;1.70;;;0.63;;
10122;SDS011;5101;49.038;8.710;2023-04-03T13:46:24;1.52;;;0.90;;
10122;SDS011;5101;49.038;8.710;2023-04-03T13:48:53;2.40;;;1.15;;
10122;SDS011;5101;49.038;8.710;2023-04-03T13:51:21;1.90;;;1.10;;
10122;SDS011;5101;49.038;8.710;2023-04-03T13:53:52;2.55;;;0.95;;
10122;SDS011;5101;49.038;8.710;2023-04-03T13:56:32;1.73;;;1.08;;
10122;SDS011;5101;49.038;8.710;2023-04-03T14:01:46;3.03;;;1.00;;
10122;SDS011;5101;49.038;8.710;2023-04-03T14:06:45;2.10;;;0.90;;
10122;SDS011;5101;49.038;8.710;2023-04-03T14:09:12;1.98;;;1.00;;
10122;SDS011;5101;49.038;8.710;2023-04-03T14:11:39;1.83;;;1.00;;
10122;SDS011;5101;49.038;8.710;2023-04-03T14:14:09;2.80;;;1.20;;
10122;SDS011;5101;49.038;8.710;2023-04-03T14:16:44;2.67;;;0.95;;
10122;SDS011;5101;49.038;8.710;2023-04-03T14:19:19;1.75;;;1.02;;
10122;SDS011;5101;49.038;8.710;2023-04-03T14:21:57;1.33;;;1.10;;
10122;SDS011;5101;49.038;8.710;2023-04-03T14:24:23;1.30;;;1.00;;
10122;SDS011;5101;49.038;8.710;2023-04-03T14:26:50;1.67;;;1.10;;
10122;SDS011;5101;49.038;8.710;2023-04-03T14:29:17;3.10;;;1.00;;
10122;SDS011;5101;49.038;8.710;2023-04-03T14:31:44;1.88;;;0.95;;
10122;SDS011;5101;49.038;8.710;2023-04-03T14:34:11;1.08;;;0.88;;
10122;SDS011;5101;49.038;8.710;2023-04-03T14:36:38;1.33;;;1.00;;
10122;SDS011;5101;49.038;8.710;2023-04-03T14:39:06;3.10;;;1.00;;
10122;SDS011;5101;49.038;8.710;2023-04-03T14:41:33;1.40;;;0.82;;
10122;SDS011;5101;49.038;8.710;2023-04-03T14:43:59;2.05;;;0.93;;
10122;SDS011;5101;49.038;8.710;2023-04-03T14:46:33;2.55;;;1.10;;
10122;SDS011;5101;49.038;8.710;2023-04-03T14:49:01;2.67;;;1.15;;
10122;SDS011;5101;49.038;8.710;2023-04-03T14:51:27;5.97;;;1.30;;
10122;SDS011;5101;49.038;8.710;2023-04-03T14:53:52;1.90;;;1.10;;
10122;SDS011;5101;49.038;8.710;2023-04-03T14:58:47;1.42;;;1.05;;
10122;SDS011;5101;49.038;8.710;2023-04-03T15:01:15;3.30;;;1.00;;
10122;SDS011;5101;49.038;8.710;2023-04-03T15:03:41;2.03;;;0.88;;
10122;SDS011;5101;49.038;8.710;2023-04-03T15:06:08;1.42;;;0.90;;
10122;SDS011;5101;49.038;8.710;2023-04-03T15:08:36;1.63;;;1.10;;
10122;SDS011;5101;49.038;8.710;2023-04-03T15:11:02;2.28;;;1.02;;
10122;SDS011;5101;49.038;8.710;2023-04-03T15:13:28;2.97;;;1.10;;
10122;SDS011;5101;49.038;8.710;2023-04-03T15:15:53;2.35;;;1.00;;
10122;SDS011;5101;49.038;8.710;2023-04-03T15:18:22;2.03;;;0.80;;
10122;SDS011;5101;49.038;8.710;2023-04-03T15:20:53;2.08;;;1.30;;
10122;SDS011;5101;49.038;8.710;2023-04-03T15:23:19;1.95;;;1.08;;
10122;SDS011;5101;49.038;8.710;2023-04-03T15:25:46;2.17;;;1.33;;
10122;SDS011;5101;49.038;8.710;2023-04-03T15:28:17;3.33;;;1.00;;
10122;SDS011;5101;49.038;8.710;2023-04-03T15:30:46;0.93;;;0.80;;
10122;SDS011;5101;49.038;8.710;2023-04-03T15:33:12;1.80;;;1.20;;
10122;SDS011;5101;49.038;8.710;2023-04-03T15:35:38;2.72;;;0.70;;
10122;SDS011;5101;49.038;8.710;2023-04-03T15:38:03;2.67;;;1.00;;
10122;SDS011;5101;49.038;8.710;2023-04-03T15:40:29;1.65;;;1.13;;
10122;SDS011;5101;49.038;8.710;2023-04-03T15:42:54;0.82;;;0.73;;
10122;SDS011;5101;49.038;8.710;2023-04-03T15:45:20;2.47;;;1.00;;
10122;SDS011;5101;49.038;8.710;2023-04-03T15:47:46;2.55;;;1.00;;
10122;SDS011;5101;49.038;8.710;2023-04-03T15:50:12;1.90;;;1.20;;
10122;SDS011;5101;49.038;8.710;2023-04-03T15:52:37;3.20;;;1.48;;
10122;SDS011;5101;49.038;8.710;2023-04-03T15:55:03;4.13;;;1.08;;
10122;SDS011;5101;49.038;8.710;2023-04-03T15:57:30;2.20;;;1.02;;
10122;SDS011;5101;49.038;8.710;2023-04-03T15:59:55;1.45;;;1.20;;
10122;SDS011;5101;49.038;8.710;2023-04-03T16:02:21;1.65;;;1.02;;
10122;SDS011;5101;49.038;8.710;2023-04-03T16:04:47;1.13;;;1.00;;
10122;SDS011;5101;49.038;8.710;2023-04-03T16:07:13;1.50;;;1.20;;
10122;SDS011;5101;49.038;8.710;2023-04-03T16:09:38;2.38;;;1.52;;
10122;SDS011;5101;49.038;8.710;2023-04-03T16:12:04;2.58;;;1.25;;
10122;SDS011;5101;49.038;8.710;2023-04-03T16:14:29;1.52;;;1.08;;
10122;SDS011;5101;49.038;8.710;2023-04-03T16:16:55;2.40;;;1.42;;
10122;SDS011;5101;49.038;8.710;2023-04-03T16:19:22;2.25;;;1.20;;
10122;SDS011;5101;49.038;8.710;2023-04-03T16:21:48;1.23;;;1.08;;
10122;SDS011;5101;49.038;8.710;2023-04-03T16:24:13;1.55;;;1.13;;
10122;SDS011;5101;49.038;8.710;2023-04-03T16:26:39;2.53;;;1.10;;
10122;SDS011;5101;49.038;8.710;2023-04-03T16:29:05;1.23;;;0.98;;
10122;SDS011;5101;49.038;8.710;2023-04-03T16:31:31;2.17;;;1.20;;
10122;SDS011;5101;49.038;8.710;2023-04-03T16:33:57;4.55;;;1.70;;
10122;SDS011;5101;49.038;8.710;2023-04-03T16:36:24;2.45;;;1.00;;
10122;SDS011;5101;49.038;8.710;2023-04-03T16:38:50;1.33;;;1.17;;